Time;durP1;ratioP1;P1;durP2;ratioP2;P2;SDS_P1;SDS_P2;PMS_P1;PMS_P2;Temp;Humidity;BMP_temperature;BMP_pressure;BME280_temperature;BME280_humidity;BME280_pressure;Samples;Min_cycle;Max_cycle;Signal;HPM_P1;HPM_P2
2022/04/18 00:01:32;;;;;;;0.10;0.10;;;7.20;89.40;;;;;;5091771;28;20079;-81
2022/04/18 00:03:59;;;;;;;0.10;0.10;;;7.30;87.60;;;;;;5074865;28;20039;-80
2022/04/18 00:06:26;;;;;;;0.30;0.30;;;7.20;90.80;;;;;;5075242;28;20037;-82
2022/04/18 00:08:53;;;;;;;0.38;0.20;;;7.20;90.90;;;;;;5074519;28;20039;-80
2022/04/18 00:11:20;;;;;;;0.10;0.10;;;7.20;92.50;;;;;;5074793;28;20392;-80
2022/04/18 00:13:46;;;;;;;0.20;0.20;;;7.10;92.90;;;;;;5108059;28;20554;-80
2022/04/18 00:16:13;;;;;;;0.20;0.20;;;7.10;92.60;;;;;;5090977;28;20051;-80
2022/04/18 00:18:40;;;;;;;0.20;0.20;;;7.10;93.60;;;;;;5091448;28;20131;-80
2022/04/18 00:21:06;;;;;;;0.10;0.10;;;7.00;94.20;;;;;;5058182;28;20050;-80
2022/04/18 00:23:33;;;;;;;0.10;0.10;;;7.10;92.20;;;;;;5058340;28;20052;-80
2022/04/18 00:26:00;;;;;;;0.10;0.10;;;7.10;94.80;;;;;;5091035;28;20048;-80
2022/04/18 00:28:26;;;;;;;0.10;0.10;;;7.10;93.80;;;;;;5074738;28;20048;-82
2022/04/18 00:30:53;;;;;;;0.10;0.10;;;7.10;94.90;;;;;;5091139;28;20043;-82
2022/04/18 00:33:20;;;;;;;0.10;0.10;;;7.10;93.60;;;;;;5091025;28;20033;-80
2022/04/18 00:35:46;;;;;;;0.20;0.20;;;7.00;96.30;;;;;;5091202;28;20055;-80
2022/04/18 00:38:13;;;;;;;0.10;0.10;;;6.90;96.30;;;;;;5074007;28;20504;-82
2022/04/18 00:40:40;;;;;;;0.10;0.10;;;6.90;96.20;;;;;;5090885;28;20409;-82
2022/04/18 00:43:07;;;;;;;0.10;0.10;;;6.90;97.00;;;;;;5073965;28;20036;-82
2022/04/18 00:45:34;;;;;;;0.20;0.20;;;6.90;97.50;;;;;;5074311;28;20098;-79
2022/04/18 00:48:01;;;;;;;0.10;0.10;;;6.80;97.60;;;;;;5107024;28;20566;-80
2022/04/18 00:50:30;;;;;;;0.20;0.20;;;6.80;98.10;;;;;;5090994;28;20135;-82
2022/04/18 00:52:57;;;;;;;0.10;0.10;;;6.90;98.70;;;;;;5107195;28;20145;-80
2022/04/18 00:55:26;;;;;;;0.10;0.10;;;6.80;98.60;;;;;;5057704;28;20127;-82
2022/04/18 00:57:54;;;;;;;0.17;0.17;;;6.80;97.00;;;;;;5074217;28;20036;-82
2022/04/18 01:00:22;;;;;;;0.17;0.17;;;6.90;98.80;;;;;;5073446;28;20077;-82
2022/04/18 01:02:49;;;;;;;0.10;0.10;;;6.90;99.30;;;;;;5090749;28;20044;-81
2022/04/18 01:05:16;;;;;;;0.10;0.10;;;6.90;98.60;;;;;;5090539;28;20040;-80
2022/04/18 01:07:43;;;;;;;0.10;0.10;;;6.80;99.90;;;;;;5057411;28;20044;-82
2022/04/18 01:10:10;;;;;;;0.50;0.50;;;6.80;99.70;;;;;;5073595;28;20075;-80
2022/04/18 01:12:38;;;;;;;0.10;0.10;;;6.70;99.90;;;;;;5090508;28;20505;-80
2022/04/18 01:15:05;;;;;;;0.63;0.43;;;6.70;99.90;;;;;;5090557;28;20135;-80
2022/04/18 01:17:32;;;;;;;0.15;0.15;;;6.70;99.90;;;;;;5090254;28;20076;-82
2022/04/18 01:19:58;;;;;;;0.20;0.20;;;6.70;99.90;;;;;;5073217;28;20075;-82
2022/04/18 01:22:26;;;;;;;0.13;0.13;;;6.60;99.90;;;;;;5073278;28;20085;-80
2022/04/18 01:30:28;;;;;;;0.10;0.10;;;6.70;99.90;;;;;;5092469;28;20437;-81
2022/04/18 01:32:55;;;;;;;0.17;0.17;;;6.70;99.90;;;;;;5106873;28;20051;-80
2022/04/18 01:35:22;;;;;;;0.20;0.20;;;6.70;99.90;;;;;;5089590;28;20573;-82
2022/04/18 01:37:49;;;;;;;0.10;0.10;;;6.70;99.90;;;;;;5089827;28;20110;-80
2022/04/18 01:40:15;;;;;;;0.10;0.10;;;6.70;99.90;;;;;;5069333;28;20033;-80
2022/04/18 01:42:42;;;;;;;0.20;0.20;;;6.60;99.90;;;;;;5070089;28;20124;-80
2022/04/18 01:45:09;;;;;;;0.15;0.15;;;6.60;99.90;;;;;;5062307;28;20502;-80
2022/04/18 01:47:36;;;;;;;0.52;0.32;;;6.60;99.90;;;;;;5089883;28;20036;-80
2022/04/18 01:50:04;;;;;;;0.13;0.13;;;6.60;99.90;;;;;;5073165;28;20051;-82
2022/04/18 01:52:31;;;;;;;0.10;0.10;;;6.50;99.90;;;;;;5073446;28;20048;-82
2022/04/18 01:54:57;;;;;;;0.22;0.22;;;6.50;99.90;;;;;;5072890;28;20508;-80
2022/04/18 01:57:24;;;;;;;0.20;0.20;;;6.40;99.90;;;;;;5072596;28;20127;-81
2022/04/18 01:59:51;;;;;;;0.13;0.13;;;6.40;99.90;;;;;;5073011;28;20048;-80
2022/04/18 02:02:17;;;;;;;0.10;0.10;;;6.30;99.90;;;;;;5072756;28;20076;-82
2022/04/18 02:04:44;;;;;;;0.20;0.20;;;6.50;99.90;;;;;;5089467;28;20040;-80
2022/04/18 02:07:11;;;;;;;0.10;0.10;;;6.40;99.90;;;;;;5072762;28;20047;-82
2022/04/18 02:09:38;;;;;;;0.10;0.10;;;6.40;99.90;;;;;;5073193;28;20048;-79
2022/04/18 02:12:06;;;;;;;0.10;0.10;;;6.30;99.90;;;;;;5069562;28;20578;-82
2022/04/18 02:14:33;;;;;;;0.13;0.13;;;6.40;99.90;;;;;;5084125;28;20048;-80
2022/04/18 02:17:00;;;;;;;0.10;0.10;;;6.30;99.90;;;;;;5069413;28;20045;-82
2022/04/18 02:19:26;;;;;;;0.20;0.20;;;6.20;99.90;;;;;;5069240;28;20128;-82
2022/04/18 02:21:53;;;;;;;0.17;0.17;;;6.20;99.90;;;;;;5052921;28;20072;-82
2022/04/18 02:24:20;;;;;;;0.10;0.10;;;6.20;99.90;;;;;;5056321;28;20037;-80
2022/04/18 02:26:46;;;;;;;0.20;0.20;;;6.20;99.90;;;;;;5056434;28;20090;-80
2022/04/18 02:29:13;;;;;;;0.10;0.10;;;6.70;99.90;;;;;;5056249;28;20051;-82
2022/04/18 02:34:25;;;;;;;0.20;0.20;;;6.00;99.90;;;;;;5081317;28;20036;-82
2022/04/18 02:36:51;;;;;;;0.20;0.20;;;6.00;99.90;;;;;;5093083;28;20562;-80
2022/04/18 02:39:18;;;;;;;0.20;0.20;;;6.10;99.90;;;;;;5060147;28;20497;-82
2022/04/18 02:41:45;;;;;;;0.10;0.10;;;6.00;99.90;;;;;;5077226;28;20036;-80
2022/04/18 02:44:12;;;;;;;0.20;0.20;;;6.00;99.90;;;;;;5076293;28;20033;-80
2022/04/18 02:46:38;;;;;;;0.10;0.10;;;5.90;99.90;;;;;;5092953;28;20435;-82
2022/04/18 02:49:05;;;;;;;0.40;0.40;;;5.90;99.90;;;;;;5072869;28;20045;-80
2022/04/18 02:51:32;;;;;;;0.30;0.30;;;5.90;99.90;;;;;;5089674;28;20040;-80
2022/04/18 02:53:59;;;;;;;0.10;0.10;;;5.80;99.90;;;;;;5056504;28;20379;-80
2022/04/18 02:56:26;;;;;;;0.30;0.30;;;5.80;99.90;;;;;;5072868;28;20083;-80
2022/04/18 02:58:52;;;;;;;0.20;0.20;;;5.70;99.90;;;;;;5073017;28;20072;-79
2022/04/18 03:01:19;;;;;;;0.10;0.10;;;5.70;99.90;;;;;;5093571;28;20486;-82
2022/04/18 03:03:46;;;;;;;0.20;0.20;;;5.70;99.90;;;;;;5092947;28;20037;-79
2022/04/18 03:06:12;;;;;;;0.20;0.20;;;5.70;99.90;;;;;;5093235;28;20044;-80
2022/04/18 03:08:39;;;;;;;0.10;0.10;;;5.60;99.90;;;;;;5092848;28;20448;-82
2022/04/18 03:11:06;;;;;;;0.20;0.20;;;6.20;99.90;;;;;;5092867;28;20045;-79
2022/04/18 03:13:34;;;;;;;0.10;0.10;;;5.70;99.90;;;;;;5092453;28;20493;-80
2022/04/18 03:16:02;;;;;;;0.17;0.17;;;5.50;99.90;;;;;;5109384;28;20105;-82
2022/04/18 03:18:29;;;;;;;0.20;0.20;;;5.50;99.90;;;;;;5075631;28;20090;-80
2022/04/18 03:20:57;;;;;;;0.20;0.20;;;5.50;99.90;;;;;;5092547;28;20040;-82
2022/04/18 03:23:23;;;;;;;0.15;0.15;;;5.50;99.90;;;;;;5091967;28;20036;-80
2022/04/18 03:25:50;;;;;;;0.20;0.20;;;5.50;99.90;;;;;;5092414;28;20070;-82
2022/04/18 03:28:17;;;;;;;0.20;0.20;;;5.40;99.90;;;;;;5091983;28;20040;-82
2022/04/18 03:30:44;;;;;;;0.10;0.10;;;5.40;99.90;;;;;;5109192;28;20110;-82
2022/04/18 03:33:11;;;;;;;0.10;0.10;;;5.40;99.90;;;;;;5092384;28;20048;-82
2022/04/18 03:35:37;;;;;;;0.20;0.20;;;5.40;99.90;;;;;;5092120;28;20040;-82
2022/04/18 03:40:50;;;;;;;0.15;0.15;;;5.40;99.90;;;;;;5094809;28;20080;-82
2022/04/18 03:43:17;;;;;;;0.10;0.10;;;5.40;99.90;;;;;;5091820;28;20473;-80
2022/04/18 03:45:43;;;;;;;0.10;0.10;;;5.40;99.90;;;;;;5108766;28;20040;-79
2022/04/18 03:48:11;;;;;;;0.20;0.20;;;5.40;99.90;;;;;;5092179;28;20036;-81
2022/04/18 03:50:37;;;;;;;0.20;0.20;;;5.30;99.90;;;;;;5105597;28;20037;-83
2022/04/18 03:53:04;;;;;;;0.20;0.20;;;5.30;99.90;;;;;;5074712;28;20115;-80
2022/04/18 03:55:31;;;;;;;0.10;0.10;;;5.40;99.90;;;;;;5088559;28;20040;-83
2022/04/18 03:57:58;;;;;;;0.17;0.17;;;5.30;99.90;;;;;;5092047;28;20040;-83
2022/04/18 04:00:24;;;;;;;0.20;0.20;;;5.40;99.90;;;;;;5091512;28;20089;-83
2022/04/18 04:02:51;;;;;;;0.10;0.10;;;5.20;99.90;;;;;;5091795;28;20029;-81
2022/04/18 04:05:18;;;;;;;0.10;0.10;;;5.20;99.90;;;;;;5091905;28;20045;-83
2022/04/18 04:07:45;;;;;;;0.10;0.10;;;5.10;99.90;;;;;;5058652;28;20425;-82
2022/04/18 04:10:11;;;;;;;0.20;0.20;;;5.10;99.90;;;;;;5074896;28;20036;-81
2022/04/18 04:12:39;;;;;;;0.20;0.20;;;5.00;99.90;;;;;;5090960;28;20041;-81
2022/04/18 04:15:06;;;;;;;0.10;0.10;;;5.00;99.90;;;;;;5074772;28;20064;-81
2022/04/18 04:17:33;;;;;;;0.20;0.20;;;5.00;99.90;;;;;;5073971;28;20123;-83
2022/04/18 04:19:59;;;;;;;0.17;0.17;;;5.00;99.90;;;;;;5091161;28;20449;-81
2022/04/18 04:22:26;;;;;;;0.10;0.10;;;5.00;99.90;;;;;;5057815;28;20037;-83
2022/04/18 04:24:53;;;;;;;0.20;0.20;;;5.00;99.90;;;;;;5074887;28;20036;-80
2022/04/18 04:27:19;;;;;;;0.20;0.20;;;5.60;99.90;;;;;;5057953;28;20044;-83
2022/04/18 04:29:46;;;;;;;0.20;0.20;;;5.00;99.90;;;;;;5058151;28;20043;-82
2022/04/18 04:32:13;;;;;;;0.20;0.20;;;4.90;99.90;;;;;;5074585;28;20036;-81
2022/04/18 04:34:41;;;;;;;0.20;0.20;;;5.50;99.90;;;;;;5057756;28;20123;-81
2022/04/18 04:37:07;;;;;;;0.20;0.20;;;5.00;99.90;;;;;;5041030;28;20056;-83
2022/04/18 04:39:34;;;;;;;0.20;0.20;;;5.00;99.90;;;;;;5058243;28;20044;-82
2022/04/18 04:42:01;;;;;;;0.20;0.20;;;4.80;99.90;;;;;;5082560;28;20074;-80
2022/04/18 04:44:27;;;;;;;0.20;0.20;;;4.80;99.90;;;;;;5086969;28;20145;-83
2022/04/18 04:46:54;;;;;;;0.20;0.20;;;5.50;99.90;;;;;;5063813;28;20044;-81
2022/04/18 04:49:21;;;;;;;0.10;0.10;;;4.80;99.90;;;;;;5091027;28;20044;-81
2022/04/18 04:51:48;;;;;;;0.20;0.20;;;4.70;99.90;;;;;;5068274;28;20047;-81
2022/04/18 04:54:14;;;;;;;0.20;0.20;;;4.80;99.90;;;;;;5073706;28;20078;-83
2022/04/18 04:56:41;;;;;;;0.20;0.20;;;5.30;99.90;;;;;;5056750;28;20055;-83
2022/04/18 04:59:08;;;;;;;0.20;0.20;;;4.70;99.90;;;;;;5090616;28;20453;-81
2022/04/18 05:01:34;;;;;;;0.15;0.15;;;4.90;99.90;;;;;;5090232;28;20143;-83
2022/04/18 05:04:04;;;;;;;0.20;0.20;;;5.70;99.90;;;;;;5073885;28;20032;-83
2022/04/18 05:06:31;;;;;;;0.20;0.20;;;5.00;99.90;;;;;;5090277;28;20036;-82
2022/04/18 05:08:58;;;;;;;0.20;0.20;;;5.40;99.90;;;;;;5090356;28;20048;-83
2022/04/18 05:11:25;;;;;;;0.20;0.20;;;4.80;99.90;;;;;;5090484;28;20040;-81
2022/04/18 05:13:52;;;;;;;0.20;0.20;;;5.20;99.90;;;;;;5089825;28;20507;-80
2022/04/18 05:16:18;;;;;;;0.25;0.25;;;5.00;99.90;;;;;;5052644;28;20098;-81
2022/04/18 05:18:45;;;;;;;0.20;0.20;;;5.00;99.90;;;;;;5058381;28;20040;-83
2022/04/18 05:21:12;;;;;;;0.20;0.20;;;5.00;99.90;;;;;;5073383;28;20041;-81
2022/04/18 05:23:39;;;;;;;0.30;0.30;;;5.00;99.90;;;;;;5089931;28;20063;-83
2022/04/18 05:26:06;;;;;;;0.10;0.10;;;5.10;99.90;;;;;;5073655;28;20033;-80
2022/04/18 05:28:32;;;;;;;0.40;0.30;;;5.10;99.90;;;;;;5089596;28;20040;-83
2022/04/18 05:30:59;;;;;;;0.20;0.20;;;5.20;99.90;;;;;;5089874;28;20055;-81
2022/04/18 05:33:26;;;;;;;0.17;0.17;;;5.30;99.90;;;;;;5057096;28;20084;-83
2022/04/18 05:35:52;;;;;;;0.20;0.20;;;5.30;99.90;;;;;;5056469;28;20097;-80
2022/04/18 05:38:19;;;;;;;0.55;0.55;;;5.40;99.90;;;;;;5072813;28;20090;-80
2022/04/18 05:40:46;;;;;;;0.20;0.20;;;5.40;99.90;;;;;;5073069;28;20041;-81
2022/04/18 05:43:14;;;;;;;0.20;0.20;;;5.50;99.90;;;;;;5091052;28;20405;-80
2022/04/18 05:45:41;;;;;;;0.20;0.20;;;6.30;99.90;;;;;;5101480;28;20048;-81
2022/04/18 05:48:08;;;;;;;0.20;0.20;;;5.60;99.90;;;;;;5076339;28;20050;-81
2022/04/18 05:50:35;;;;;;;0.20;0.20;;;5.70;99.90;;;;;;5073519;28;20032;-83
2022/04/18 05:53:02;;;;;;;0.10;0.10;;;5.70;99.90;;;;;;5056678;28;20455;-81
2022/04/18 05:55:35;;;;;;;0.20;0.20;;;5.80;99.90;;;;;;5056313;28;20113;-82
2022/04/18 05:58:02;;;;;;;0.20;0.20;;;5.80;99.90;;;;;;5058330;28;20049;-83
2022/04/18 06:00:29;;;;;;;0.10;0.10;;;5.80;99.90;;;;;;5073477;28;20401;-83
2022/04/18 06:02:55;;;;;;;0.20;0.20;;;5.90;99.90;;;;;;5072734;28;20036;-83
2022/04/18 06:05:22;;;;;;;0.15;0.15;;;6.00;99.90;;;;;;5073082;28;20457;-83
2022/04/18 06:07:50;;;;;;;0.10;0.10;;;6.00;99.90;;;;;;5087629;28;20040;-83
2022/04/18 06:10:16;;;;;;;0.20;0.20;;;6.00;99.90;;;;;;5072880;28;20524;-81
2022/04/18 06:12:43;;;;;;;0.10;0.10;;;6.10;99.90;;;;;;5055904;28;20037;-81
2022/04/18 06:15:10;;;;;;;0.30;0.30;;;6.20;99.90;;;;;;5072491;28;20032;-82
2022/04/18 06:17:36;;;;;;;0.20;0.20;;;6.30;99.90;;;;;;5072600;28;20136;-83
2022/04/18 06:20:04;;;;;;;0.20;0.20;;;6.30;99.90;;;;;;5089249;28;20310;-82
2022/04/18 06:22:31;;;;;;;0.10;0.10;;;6.30;99.90;;;;;;5089332;28;20067;-82
2022/04/18 06:24:58;;;;;;;0.20;0.20;;;6.40;99.90;;;;;;5102141;28;20047;-82
2022/04/18 06:27:24;;;;;;;0.30;0.30;;;6.40;99.90;;;;;;5085051;28;20037;-82
2022/04/18 06:29:51;;;;;;;0.20;0.20;;;6.50;99.90;;;;;;5109411;28;20382;-83
2022/04/18 06:32:18;;;;;;;0.10;0.10;;;6.70;99.90;;;;;;5092335;28;20052;-83
2022/04/18 06:34:46;;;;;;;0.10;0.10;;;6.70;99.90;;;;;;5076931;28;20044;-82
2022/04/18 06:37:13;;;;;;;0.20;0.20;;;6.80;99.90;;;;;;5089751;28;20145;-82
2022/04/18 06:39:40;;;;;;;0.10;0.10;;;7.20;99.90;;;;;;5091742;28;20504;-83
2022/04/18 06:42:06;;;;;;;0.10;0.10;;;6.90;99.90;;;;;;5062365;28;20047;-82
2022/04/18 06:44:33;;;;;;;0.20;0.20;;;7.00;99.90;;;;;;5103954;28;20032;-83
2022/04/18 06:47:00;;;;;;;0.15;0.15;;;7.10;99.90;;;;;;5075478;28;20040;-83
2022/04/18 06:49:26;;;;;;;0.20;0.20;;;7.30;99.90;;;;;;5076679;28;20044;-83
2022/04/18 06:51:53;;;;;;;0.20;0.20;;;7.30;99.90;;;;;;5063988;28;20128;-83
2022/04/18 06:54:20;;;;;;;0.10;0.10;;;7.80;99.90;;;;;;5052439;28;20099;-82
2022/04/18 06:56:58;;;;;;;0.20;0.20;;;7.80;99.90;;;;;;5063146;28;20076;-83
2022/04/18 06:59:27;;;;;;;0.20;0.20;;;7.70;99.90;;;;;;5072433;28;20486;-81
2022/04/18 07:01:54;;;;;;;0.10;0.10;;;7.80;99.90;;;;;;5069033;28;20124;-81
2022/04/18 07:04:21;;;;;;;0.10;0.10;;;8.00;99.90;;;;;;5069424;28;20041;-80
2022/04/18 07:06:48;;;;;;;0.10;0.10;;;8.10;99.90;;;;;;5086628;28;20501;-83
2022/04/18 07:09:14;;;;;;;0.15;0.15;;;8.20;99.90;;;;;;5091412;28;20064;-81
2022/04/18 07:11:42;;;;;;;0.10;0.10;;;8.40;99.90;;;;;;5054196;28;20040;-83
2022/04/18 07:14:09;;;;;;;0.20;0.20;;;8.60;99.90;;;;;;5055893;28;20044;-83
2022/04/18 07:16:35;;;;;;;0.10;0.10;;;8.80;99.90;;;;;;5088803;28;20055;-80
2022/04/18 07:19:02;;;;;;;0.10;0.10;;;8.90;99.90;;;;;;5067203;28;20040;-80
2022/04/18 07:21:29;;;;;;;0.10;0.10;;;9.10;99.90;;;;;;5080724;28;20040;-80
2022/04/18 07:23:55;;;;;;;0.20;0.20;;;9.30;99.90;;;;;;5072489;28;20035;-81
2022/04/18 07:26:22;;;;;;;0.20;0.20;;;9.50;99.90;;;;;;5070662;28;20499;-81
2022/04/18 07:28:49;;;;;;;0.20;0.20;;;9.70;99.90;;;;;;5082834;28;20039;-80
2022/04/18 07:31:16;;;;;;;0.75;0.75;;;9.90;99.90;;;;;;5097006;28;20044;-81
2022/04/18 07:33:43;;;;;;;0.10;0.10;;;10.00;99.90;;;;;;5112041;28;20044;-82
2022/04/18 07:36:09;;;;;;;0.30;0.30;;;10.20;99.90;;;;;;5105925;28;20172;-80
2022/04/18 07:38:51;;;;;;;0.10;0.10;;;10.20;99.90;;;;;;5102484;28;20485;-81
2022/04/18 07:41:26;;;;;;;0.10;0.10;;;10.40;99.90;;;;;;5093516;28;20776;-82
2022/04/18 07:43:54;;;;;;;0.10;0.10;;;10.60;99.90;;;;;;5091157;28;20040;-83
2022/04/18 07:46:21;;;;;;;0.10;0.10;;;10.70;99.90;;;;;;5086410;28;20037;-82
2022/04/18 07:48:51;;;;;;;0.10;0.10;;;10.90;99.90;;;;;;5071833;28;20501;-90
2022/04/18 07:51:35;;;;;;;0.10;0.10;;;11.00;99.90;;;;;;5074803;28;20053;-84
2022/04/18 07:54:05;;;;;;;0.10;0.10;;;11.20;99.90;;;;;;5108519;28;20091;-85
2022/04/18 07:56:32;;;;;;;0.10;0.10;;;11.30;99.90;;;;;;5074502;28;20106;-84
2022/04/18 07:58:59;;;;;;;0.08;0.08;;;11.40;99.90;;;;;;5091121;28;20028;-82
2022/04/18 08:01:27;;;;;;;0.10;0.10;;;11.70;99.90;;;;;;5101487;28;20036;-83
2022/04/18 08:03:54;;;;;;;0.30;0.20;;;11.70;99.70;;;;;;5064764;28;20115;-81
2022/04/18 08:06:20;;;;;;;0.32;0.30;;;11.80;99.90;;;;;;5075216;28;20040;-82
2022/04/18 08:08:47;;;;;;;0.00;0.00;;;11.90;99.80;;;;;;5054124;28;20040;-85
2022/04/18 08:11:17;;;;;;;0.10;0.10;;;12.00;99.70;;;;;;5090347;28;20047;-87
2022/04/18 08:13:45;;;;;;;0.20;0.20;;;12.10;99.80;;;;;;5055188;28;20045;-82
2022/04/18 08:16:12;;;;;;;0.10;0.10;;;12.30;98.70;;;;;;5071367;28;20055;-82
2022/04/18 08:18:44;;;;;;;0.10;0.10;;;12.50;99.40;;;;;;5071368;28;20494;-83
2022/04/18 08:21:15;;;;;;;0.10;0.10;;;12.60;97.60;;;;;;5091449;28;20048;-82
2022/04/18 08:23:46;;;;;;;0.10;0.10;;;12.70;98.20;;;;;;5075211;28;20037;-81
2022/04/18 08:26:13;;;;;;;0.03;0.03;;;12.90;95.40;;;;;;5091828;28;20041;-82
2022/04/18 08:28:41;;;;;;;0.10;0.10;;;13.00;95.10;;;;;;5074841;28;20047;-83
2022/04/18 08:31:08;;;;;;;0.00;0.00;;;13.10;91.90;;;;;;5089765;28;20044;-81
2022/04/18 08:33:35;;;;;;;0.28;0.10;;;13.20;92.20;;;;;;5107507;28;20800;-82
2022/04/18 08:36:03;;;;;;;0.10;0.10;;;13.30;92.00;;;;;;5074147;28;20123;-81
2022/04/18 08:38:29;;;;;;;0.10;0.10;;;13.40;89.80;;;;;;5107064;28;20048;-82
2022/04/18 08:40:58;;;;;;;0.15;0.15;;;13.50;91.20;;;;;;5090918;28;20074;-82
2022/04/18 08:43:24;;;;;;;0.20;0.15;;;13.60;88.90;;;;;;5090846;28;20060;-81
2022/04/18 08:45:52;;;;;;;0.00;0.00;;;13.70;89.70;;;;;;5090223;28;20036;-82
2022/04/18 08:54:00;;;;;;;0.00;0.00;;;14.10;89.30;;;;;;5106925;28;20487;-82
2022/04/18 08:56:27;;;;;;;0.10;0.10;;;14.20;90.10;;;;;;5090766;28;20040;-82
2022/04/18 08:58:54;;;;;;;0.00;0.00;;;14.30;88.40;;;;;;5090215;28;20037;-81
2022/04/18 09:01:21;;;;;;;0.10;0.10;;;14.40;86.40;;;;;;5090751;28;20037;-82
2022/04/18 09:03:49;;;;;;;0.00;0.00;;;14.60;88.50;;;;;;5057649;28;20051;-82
2022/04/18 09:06:16;;;;;;;0.20;0.15;;;14.70;83.90;;;;;;5090350;28;20036;-81
2022/04/18 09:08:46;;;;;;;0.22;0.22;;;14.80;82.70;;;;;;5090502;28;20409;-82
2022/04/18 09:11:38;;;;;;;0.28;0.20;;;14.90;82.50;;;;;;5090205;28;20040;-82
2022/04/18 09:14:10;;;;;;;0.10;0.10;;;14.90;80.30;;;;;;5089883;28;20043;-82
2022/04/18 09:16:39;;;;;;;0.00;0.00;;;14.90;82.30;;;;;;5090466;28;20032;-80
2022/04/18 09:19:10;;;;;;;0.30;0.10;;;15.00;79.40;;;;;;5106245;28;20044;-80
2022/04/18 09:21:58;;;;;;;0.00;0.00;;;15.00;78.90;;;;;;5090033;28;20033;-79
2022/04/18 09:24:34;;;;;;;0.10;0.10;;;15.10;81.80;;;;;;5090268;28;20493;-80
2022/04/18 09:27:29;;;;;;;0.00;0.00;;;15.20;79.50;;;;;;5090237;28;20032;-80
2022/04/18 09:30:09;;;;;;;0.17;0.10;;;15.40;79.60;;;;;;5105670;28;20420;-80
2022/04/18 09:32:38;;;;;;;0.38;0.15;;;15.40;80.00;;;;;;5090248;28;20044;-80
2022/04/18 09:35:11;;;;;;;0.00;0.00;;;15.60;79.80;;;;;;5090002;28;20493;-81
2022/04/18 09:37:38;;;;;;;0.03;0.03;;;15.70;80.40;;;;;;5073031;28;20055;-82
2022/04/18 09:40:05;;;;;;;0.00;0.00;;;15.80;75.00;;;;;;5072644;28;20036;-82
2022/04/18 09:42:32;;;;;;;0.08;0.08;;;15.90;75.90;;;;;;5056696;28;20039;-83
2022/04/18 09:44:58;;;;;;;0.10;0.10;;;15.90;76.00;;;;;;5106030;28;20040;-81
2022/04/18 09:47:33;;;;;;;0.13;0.05;;;16.00;78.50;;;;;;5073199;28;20040;-82
2022/04/18 09:50:58;;;;;;;1.10;0.15;;;16.10;74.90;;;;;;5090596;28;20040;-82
2022/04/18 09:53:01;;;;;;;0.15;0.13;;;16.20;74.70;;;;;;5091976;28;20044;-81
2022/04/18 09:55:32;;;;;;;0.17;0.17;;;16.40;75.50;;;;;;5056736;28;20072;-81
2022/04/18 09:58:03;;;;;;;0.08;0.08;;;16.40;71.40;;;;;;5089139;28;20051;-81
2022/04/18 10:00:30;;;;;;;0.15;0.05;;;16.60;72.10;;;;;;5089375;28;20040;-83
2022/04/18 10:02:57;;;;;;;1.08;0.32;;;16.60;71.90;;;;;;5089301;28;20037;-79
2022/04/18 10:05:27;;;;;;;0.17;0.17;;;16.70;70.00;;;;;;5089563;28;20405;-81
2022/04/18 10:07:55;;;;;;;0.10;0.10;;;16.70;72.80;;;;;;5089733;28;20049;-79
2022/04/18 10:10:24;;;;;;;0.05;0.05;;;16.80;72.60;;;;;;5089420;28;20036;-80
2022/04/18 10:12:50;;;;;;;0.57;0.28;;;16.90;69.10;;;;;;5089726;28;20045;-80
2022/04/18 10:15:17;;;;;;;0.28;0.28;;;17.00;70.10;;;;;;5056291;28;20398;-80
2022/04/18 10:17:44;;;;;;;0.13;0.13;;;17.20;69.50;;;;;;5072585;28;20566;-80
2022/04/18 10:20:37;;;;;;;0.30;0.30;;;17.30;69.70;;;;;;5072708;28;20040;-80
2022/04/18 10:23:32;;;;;;;0.73;0.40;;;17.40;67.20;;;;;;5088868;28;20039;-81
2022/04/18 10:26:22;;;;;;;0.43;0.30;;;17.20;60.50;;;;;;5089557;28;20048;-81
2022/04/18 10:28:53;;;;;;;0.47;0.30;;;17.20;62.60;;;;;;5089497;28;20044;-80
2022/04/18 10:31:26;;;;;;;0.63;0.20;;;17.20;65.60;;;;;;5089026;28;20169;-81
2022/04/18 10:33:57;;;;;;;0.47;0.30;;;17.30;65.10;;;;;;5089251;28;20102;-79
2022/04/18 10:36:31;;;;;;;0.82;0.35;;;17.40;66.10;;;;;;5089299;28;20037;-80
2022/04/18 10:39:05;;;;;;;0.50;0.35;;;17.50;64.70;;;;;;5089094;28;20055;-80
2022/04/18 10:41:32;;;;;;;0.50;0.32;;;17.60;62.20;;;;;;5105972;28;20134;-80
2022/04/18 10:44:01;;;;;;;1.05;0.52;;;17.60;65.20;;;;;;5089162;28;20147;-81
2022/04/18 10:46:28;;;;;;;1.25;0.60;;;17.60;64.30;;;;;;5089282;28;20080;-80
2022/04/18 10:49:01;;;;;;;1.10;0.63;;;17.70;64.40;;;;;;5089146;28;20040;-80
2022/04/18 10:51:35;;;;;;;1.48;0.70;;;17.80;65.10;;;;;;5105867;28;20094;-80
2022/04/18 10:54:19;;;;;;;0.60;0.45;;;17.90;61.30;;;;;;5089946;28;20122;-79
2022/04/18 10:56:47;;;;;;;0.70;0.40;;;18.00;62.20;;;;;;5092801;28;20153;-80
2022/04/18 10:59:15;;;;;;;0.22;0.15;;;18.10;62.00;;;;;;5092130;28;20094;-79
2022/04/18 11:01:42;;;;;;;0.63;0.32;;;18.20;59.50;;;;;;5109633;28;20040;-80
2022/04/18 11:04:13;;;;;;;0.52;0.40;;;18.20;62.20;;;;;;5076095;28;20131;-79
2022/04/18 11:06:40;;;;;;;0.50;0.38;;;18.20;58.70;;;;;;5093014;28;20047;-81
2022/04/18 11:09:10;;;;;;;0.57;0.30;;;18.30;58.00;;;;;;5092626;28;20040;-81
2022/04/18 11:11:36;;;;;;;0.55;0.30;;;18.30;61.10;;;;;;5092569;28;20169;-80
2022/04/18 11:14:23;;;;;;;0.98;0.55;;;18.20;59.30;;;;;;5092439;28;20080;-80
2022/04/18 11:17:01;;;;;;;0.52;0.35;;;18.30;60.00;;;;;;5109000;28;20106;-80
2022/04/18 11:19:39;;;;;;;0.93;0.40;;;18.40;60.00;;;;;;5092379;28;20562;-79
2022/04/18 11:22:16;;;;;;;1.00;0.43;;;18.50;57.00;;;;;;5092305;28;20078;-79
2022/04/18 11:24:44;;;;;;;0.63;0.43;;;18.60;56.80;;;;;;5109064;28;20057;-81
2022/04/18 11:27:12;;;;;;;1.70;0.57;;;18.50;58.10;;;;;;5092215;28;20040;-79
2022/04/18 11:29:50;;;;;;;0.95;0.50;;;18.60;57.20;;;;;;5075905;28;20462;-81
2022/04/18 11:32:19;;;;;;;0.17;0.17;;;18.60;58.20;;;;;;5093549;28;20076;-79
2022/04/18 11:34:48;;;;;;;2.42;0.75;;;18.70;59.20;;;;;;5092062;28;20041;-80
2022/04/18 11:37:46;;;;;;;0.20;0.20;;;18.70;58.50;;;;;;5091771;28;20492;-81
2022/04/18 11:40:16;;;;;;;0.63;0.38;;;18.70;53.70;;;;;;5108269;28;20055;-80
2022/04/18 11:42:45;;;;;;;0.68;0.50;;;18.60;56.10;;;;;;5108881;28;20062;-81
2022/04/18 11:45:25;;;;;;;0.40;0.30;;;18.70;55.40;;;;;;5091774;28;20508;-81
2022/04/18 11:47:53;;;;;;;1.40;0.80;;;18.50;53.20;;;;;;5092135;28;20131;-81
2022/04/18 11:50:23;;;;;;;0.70;0.43;;;18.40;54.80;;;;;;5074913;28;20040;-81
2022/04/18 11:53:00;;;;;;;0.98;0.55;;;18.50;53.10;;;;;;5075718;28;20485;-79
2022/04/18 11:55:27;;;;;;;0.47;0.45;;;18.50;55.50;;;;;;5075059;28;20044;-81
2022/04/18 11:57:54;;;;;;;0.50;0.38;;;18.60;55.30;;;;;;5075146;28;20401;-81
2022/04/18 12:08:46;;;;;;;0.85;0.55;;;18.90;56.70;;;;;;5093914;28;20056;-80
2022/04/18 12:11:16;;;;;;;0.10;0.10;;;18.90;53.60;;;;;;5075112;28;20047;-81
2022/04/18 12:13:50;;;;;;;1.15;0.57;;;19.00;53.90;;;;;;5092328;28;20044;-80
2022/04/18 12:16:18;;;;;;;1.38;0.57;;;19.00;53.90;;;;;;5091569;28;20036;-80
2022/04/18 12:18:45;;;;;;;1.42;0.52;;;19.10;52.90;;;;;;5091558;28;20036;-80
2022/04/18 12:21:15;;;;;;;0.32;0.22;;;19.10;52.40;;;;;;5108420;28;20497;-80
2022/04/18 12:23:42;;;;;;;0.98;0.52;;;19.10;53.00;;;;;;5075289;28;20043;-81
2022/04/18 12:26:12;;;;;;;0.35;0.22;;;19.10;52.90;;;;;;5107749;28;20127;-80
2022/04/18 12:28:39;;;;;;;0.60;0.32;;;19.10;53.80;;;;;;5074572;28;20041;-81
2022/04/18 12:31:10;;;;;;;1.17;0.80;;;19.10;53.50;;;;;;5091301;28;20123;-80
2022/04/18 12:33:50;;;;;;;1.10;0.50;;;19.20;53.90;;;;;;5107598;28;20408;-80
2022/04/18 12:36:24;;;;;;;1.05;0.47;;;19.10;52.50;;;;;;5091906;28;20757;-82
2022/04/18 12:38:55;;;;;;;0.90;0.55;;;19.10;53.10;;;;;;5074192;28;20091;-80
2022/04/18 12:41:35;;;;;;;0.20;0.20;;;19.00;52.60;;;;;;5092874;28;20082;-81
2022/04/18 12:44:13;;;;;;;1.73;0.80;;;19.00;54.50;;;;;;5091025;28;20044;-81
2022/04/18 12:46:41;;;;;;;1.60;0.63;;;19.00;49.30;;;;;;5087396;28;20402;-80
2022/04/18 12:49:12;;;;;;;2.17;0.65;;;19.10;52.60;;;;;;5070848;28;20124;-81
2022/04/18 12:51:42;;;;;;;1.00;0.60;;;19.10;53.30;;;;;;5070777;28;20751;-82
2022/04/18 12:54:19;;;;;;;2.60;0.80;;;19.10;50.90;;;;;;5070959;28;20053;-81
2022/04/18 12:56:47;;;;;;;1.05;0.55;;;19.10;50.20;;;;;;5105790;28;20075;-81
2022/04/18 12:59:22;;;;;;;0.90;0.60;;;19.10;51.80;;;;;;5074101;28;20059;-80
2022/04/18 13:01:49;;;;;;;0.70;0.50;;;19.10;52.20;;;;;;5107231;28;20161;-81
2022/04/18 13:04:21;;;;;;;1.13;0.60;;;19.10;52.20;;;;;;5074224;28;20086;-80
2022/04/18 13:07:04;;;;;;;1.52;0.63;;;19.00;50.90;;;;;;5090858;28;20093;-80
2022/04/18 13:09:31;;;;;;;1.10;0.63;;;19.10;51.80;;;;;;5090135;28;20178;-80
2022/04/18 13:12:03;;;;;;;0.50;0.28;;;19.20;52.40;;;;;;5074152;28;20127;-79
2022/04/18 13:14:29;;;;;;;1.08;0.60;;;19.20;51.80;;;;;;5090379;28;20400;-80
2022/04/18 13:17:10;;;;;;;1.20;0.68;;;19.20;52.40;;;;;;5073388;28;20038;-80
2022/04/18 13:19:38;;;;;;;1.25;0.70;;;19.20;52.70;;;;;;5073351;28;20086;-80
2022/04/18 13:22:06;;;;;;;1.58;0.75;;;19.10;51.20;;;;;;5090251;28;20047;-83
2022/04/18 13:24:33;;;;;;;0.40;0.30;;;19.20;50.50;;;;;;5089852;28;20491;-83
2022/04/18 13:27:00;;;;;;;0.80;0.45;;;19.10;51.80;;;;;;5090276;28;20090;-80